createdAt,value
2017-12-03T00:01:36.834Z,30.10
2017-12-03T00:04:04.352Z,32.10
2017-12-03T00:06:31.904Z,31.43
2017-12-03T00:08:59.547Z,30.47
2017-12-03T00:11:27.067Z,36.27
2017-12-03T00:13:54.592Z,33.63
2017-12-03T00:16:22.168Z,33.93
2017-12-03T00:18:49.717Z,31.67
2017-12-03T00:21:17.231Z,29.90
2017-12-03T00:23:44.875Z,34.80
2017-12-03T00:26:12.391Z,36.33
2017-12-03T00:28:39.917Z,37.87
2017-12-03T00:31:07.510Z,33.90
2017-12-03T00:33:35.027Z,29.83
2017-12-03T00:36:02.555Z,37.77
2017-12-03T00:38:30.209Z,40.03
2017-12-03T00:40:57.736Z,35.73
2017-12-03T00:43:25.272Z,37.37
2017-12-03T00:45:52.821Z,38.73
2017-12-03T00:48:20.340Z,33.57
2017-12-03T00:50:47.992Z,37.07
2017-12-03T00:53:15.512Z,36.00
2017-12-03T00:55:43.050Z,39.33
2017-12-03T00:58:10.709Z,36.63
2017-12-03T01:00:38.252Z,40.90
2017-12-03T01:03:05.777Z,38.60
2017-12-03T01:05:33.353Z,38.90
2017-12-03T01:08:00.884Z,42.70
2017-12-03T01:10:28.634Z,39.23
2017-12-03T01:12:56.215Z,34.60
2017-12-03T01:15:23.773Z,42.70
2017-12-03T01:17:51.313Z,43.57
2017-12-03T01:20:18.997Z,42.43
2017-12-03T01:22:46.549Z,38.70
2017-12-03T01:25:14.101Z,40.60
2017-12-03T01:27:41.675Z,43.40
2017-12-03T01:30:09.199Z,41.43
2017-12-03T01:32:36.720Z,36.73
2017-12-03T01:35:04.280Z,41.77
2017-12-03T01:37:31.790Z,28.50
2017-12-03T01:39:59.313Z,39.33
2017-12-03T01:42:26.865Z,39.30
2017-12-03T01:44:54.380Z,43.13
2017-12-03T01:47:22.045Z,40.47
2017-12-03T01:49:49.577Z,38.37
2017-12-03T01:52:17.108Z,42.67
2017-12-03T01:54:44.662Z,40.53
2017-12-03T01:57:12.213Z,37.87
2017-12-03T01:59:39.732Z,38.77
2017-12-03T02:02:07.398Z,37.97
2017-12-03T02:04:34.929Z,36.67
2017-12-03T02:07:02.499Z,32.40
2017-12-03T02:09:30.085Z,38.80
2017-12-03T02:11:57.629Z,38.17
2017-12-03T02:14:25.208Z,42.07
2017-12-03T02:16:52.762Z,40.43
2017-12-03T02:19:20.365Z,39.33
2017-12-03T02:21:47.941Z,37.20
2017-12-03T02:24:15.480Z,40.50
2017-12-03T02:26:43.034Z,41.27
2017-12-03T02:29:10.560Z,44.37
2017-12-03T02:31:38.222Z,33.40
2017-12-03T02:34:05.753Z,41.07
2017-12-03T02:36:33.290Z,38.27
2017-12-03T02:39:00.847Z,40.10
2017-12-03T02:41:28.385Z,41.80
2017-12-03T02:43:56.002Z,42.47
2017-12-03T02:46:23.544Z,39.53
2017-12-03T02:48:51.074Z,42.33
2017-12-03T02:51:18.742Z,41.10
2017-12-03T02:53:46.278Z,39.90
2017-12-03T02:56:13.830Z,38.07
2017-12-03T02:58:41.433Z,39.10
2017-12-03T03:01:08.973Z,38.93
2017-12-03T03:03:36.514Z,37.13
2017-12-03T03:06:04.104Z,42.70
2017-12-03T03:08:31.678Z,33.33
2017-12-03T03:10:59.207Z,42.03
2017-12-03T03:13:26.781Z,38.37
2017-12-03T03:15:54.332Z,42.37
2017-12-03T03:18:21.871Z,37.73
2017-12-03T03:20:49.432Z,39.93
2017-12-03T03:23:17.000Z,38.73
2017-12-03T03:25:44.579Z,37.20
2017-12-03T03:28:12.237Z,42.93
2017-12-03T03:30:39.760Z,40.13
2017-12-03T03:33:07.284Z,42.20
2017-12-03T03:35:34.977Z,33.87
2017-12-03T03:38:02.525Z,40.83
2017-12-03T03:40:30.087Z,42.50
2017-12-03T03:42:57.685Z,41.13
2017-12-03T03:45:25.226Z,40.00
2017-12-03T03:47:52.755Z,36.60
2017-12-03T03:50:20.467Z,38.73
2017-12-03T03:52:47.989Z,40.70
2017-12-03T03:55:15.528Z,41.37
2017-12-03T03:57:43.182Z,34.40
2017-12-03T04:00:10.720Z,36.07
2017-12-03T04:02:38.274Z,41.40
2017-12-03T04:05:05.958Z,37.30
2017-12-03T04:07:33.488Z,38.17
2017-12-03T04:10:01.013Z,41.20
2017-12-03T04:12:28.788Z,42.23
2017-12-03T04:14:56.365Z,37.03
2017-12-03T04:17:23.893Z,38.10
2017-12-03T04:19:51.460Z,41.40
2017-12-03T04:22:19.004Z,41.70
2017-12-03T04:24:46.549Z,36.70
2017-12-03T04:27:14.117Z,40.00
2017-12-03T04:29:41.805Z,41.80
2017-12-03T04:32:09.364Z,39.83
2017-12-03T04:34:36.916Z,29.27
2017-12-03T04:37:04.616Z,33.53
2017-12-03T04:39:32.175Z,34.17
2017-12-03T04:41:59.762Z,36.80
2017-12-03T04:44:27.390Z,41.03
2017-12-03T04:46:54.956Z,36.17
2017-12-03T04:49:22.514Z,34.80
2017-12-03T04:51:50.071Z,36.87
2017-12-03T04:54:17.642Z,32.47
2017-12-03T04:56:45.215Z,34.87
2017-12-03T04:59:12.790Z,40.13
2017-12-03T05:01:40.312Z,34.23
2017-12-03T05:04:07.888Z,37.93
2017-12-03T05:06:35.438Z,37.90
2017-12-03T05:09:03.042Z,41.00
2017-12-03T05:11:30.608Z,37.70
2017-12-03T05:13:58.182Z,39.63
2017-12-03T05:16:25.852Z,39.50
2017-12-03T05:18:53.398Z,35.33
2017-12-03T05:21:20.919Z,35.93
2017-12-03T05:23:48.524Z,34.40
2017-12-03T05:26:16.071Z,38.40
2017-12-03T05:28:43.629Z,39.50
2017-12-03T05:31:11.201Z,34.87
2017-12-03T05:33:38.741Z,38.80
2017-12-03T05:36:06.385Z,39.03
2017-12-03T05:38:33.892Z,44.03
2017-12-03T05:41:01.433Z,35.07
2017-12-03T05:43:29.004Z,41.67
2017-12-03T05:45:56.598Z,40.80
2017-12-03T05:48:24.152Z,39.53
2017-12-03T05:50:51.697Z,38.77
2017-12-03T05:53:19.260Z,42.53
2017-12-03T05:55:46.779Z,39.93
2017-12-03T05:58:14.328Z,36.57
2017-12-03T06:00:41.861Z,38.63
2017-12-03T06:03:09.550Z,39.30
2017-12-03T06:05:37.085Z,39.37
2017-12-03T06:08:04.624Z,36.70
2017-12-03T06:10:32.294Z,38.47
2017-12-03T06:12:59.933Z,37.30
2017-12-03T06:15:27.477Z,35.90
2017-12-03T06:17:55.245Z,36.50
2017-12-03T06:20:22.791Z,34.20
2017-12-03T06:22:50.322Z,40.07
2017-12-03T06:25:17.982Z,40.10
2017-12-03T06:27:45.511Z,35.87
2017-12-03T06:30:13.056Z,41.20
2017-12-03T06:32:40.600Z,40.93
2017-12-03T06:35:08.149Z,37.00
2017-12-03T06:37:35.753Z,43.40
2017-12-03T06:40:03.285Z,40.13
2017-12-03T06:42:30.834Z,37.40
2017-12-03T06:44:58.390Z,36.23
2017-12-03T06:47:25.971Z,38.00
2017-12-03T06:49:53.518Z,36.67
2017-12-03T06:52:21.070Z,32.37
2017-12-03T06:54:48.619Z,36.83
2017-12-03T06:57:16.306Z,36.90
2017-12-03T06:59:43.853Z,37.03
2017-12-03T07:02:11.409Z,37.70
2017-12-03T07:04:39.080Z,38.73
2017-12-03T07:07:06.637Z,37.23
2017-12-03T07:09:34.200Z,38.33
2017-12-03T07:12:01.809Z,39.23
2017-12-03T07:14:29.357Z,36.97
2017-12-03T07:16:56.899Z,38.00
2017-12-03T07:19:24.571Z,32.90
2017-12-03T07:21:52.117Z,35.80
2017-12-03T07:24:19.651Z,37.70
2017-12-03T07:26:47.222Z,36.43
2017-12-03T07:29:14.809Z,38.20
2017-12-03T07:31:42.377Z,35.20
2017-12-03T07:34:09.957Z,34.90
2017-12-03T07:36:37.488Z,32.07
2017-12-03T07:39:05.080Z,34.50
2017-12-03T07:41:32.616Z,34.00
2017-12-03T07:44:00.185Z,33.90
2017-12-03T07:46:27.877Z,33.93
2017-12-03T07:48:55.422Z,37.57
2017-12-03T07:51:23.901Z,34.63
2017-12-03T07:53:51.457Z,35.03
2017-12-03T07:56:19.008Z,38.50
2017-12-03T07:58:46.570Z,38.10
2017-12-03T08:01:14.163Z,34.30
2017-12-03T08:03:41.772Z,36.70
2017-12-03T08:06:09.300Z,31.57
2017-12-03T08:08:36.876Z,34.30
2017-12-03T08:11:04.489Z,33.47
2017-12-03T08:13:32.020Z,33.60
2017-12-03T08:15:59.564Z,35.20
2017-12-03T08:18:27.133Z,34.03
2017-12-03T08:20:54.663Z,33.47
2017-12-03T08:23:22.216Z,33.20
2017-12-03T08:25:49.830Z,34.50
2017-12-03T08:28:17.377Z,33.47
2017-12-03T08:30:44.921Z,34.27
2017-12-03T08:33:12.505Z,40.37
2017-12-03T08:35:40.088Z,41.47
2017-12-03T08:38:07.676Z,24.37
2017-12-03T08:40:35.218Z,37.23
2017-12-03T08:43:02.759Z,35.57
2017-12-03T08:45:30.344Z,46.80
2017-12-03T08:47:57.929Z,35.10
2017-12-03T08:50:25.472Z,38.97
2017-12-03T08:52:53.069Z,37.17
2017-12-03T08:55:20.608Z,36.13
2017-12-03T08:57:48.157Z,35.03
2017-12-03T09:00:15.781Z,36.30
2017-12-03T09:02:43.330Z,39.90
2017-12-03T09:05:10.889Z,36.20
2017-12-03T09:07:38.473Z,33.30
2017-12-03T09:10:06.798Z,33.83
2017-12-03T09:12:34.551Z,37.07
2017-12-03T09:15:02.238Z,35.53
2017-12-03T09:17:29.830Z,34.07
2017-12-03T09:19:57.385Z,36.97
2017-12-03T09:22:24.965Z,38.03
2017-12-03T09:24:52.596Z,38.67
2017-12-03T09:27:20.219Z,35.60
2017-12-03T09:29:47.766Z,32.30
2017-12-03T09:32:15.362Z,39.47
2017-12-03T09:34:43.013Z,38.43
2017-12-03T09:37:10.618Z,33.53
2017-12-03T09:39:38.157Z,44.73
2017-12-03T09:42:05.685Z,29.97
2017-12-03T09:44:33.286Z,38.27
2017-12-03T09:47:00.820Z,35.20
2017-12-03T09:49:28.390Z,34.00
2017-12-03T09:51:55.956Z,37.53
2017-12-03T09:54:23.492Z,36.93
2017-12-03T09:56:51.211Z,42.70
2017-12-03T09:59:18.757Z,73.93
2017-12-03T10:01:46.293Z,34.73
2017-12-03T10:04:13.905Z,34.43
2017-12-03T10:06:41.457Z,35.27
2017-12-03T10:09:09.016Z,35.60
2017-12-03T10:11:36.763Z,35.00
2017-12-03T10:14:04.420Z,33.50
2017-12-03T10:16:32.092Z,33.03
2017-12-03T10:18:59.659Z,32.80
2017-12-03T10:21:27.203Z,30.10
2017-12-03T10:23:54.759Z,36.23
2017-12-03T10:26:22.376Z,36.87
2017-12-03T10:28:49.925Z,40.90
2017-12-03T10:31:17.540Z,36.63
2017-12-03T10:33:45.156Z,35.07
2017-12-03T10:36:12.696Z,33.30
2017-12-03T10:38:40.277Z,32.10
2017-12-03T10:41:07.846Z,33.17
2017-12-03T10:43:35.396Z,34.23
2017-12-03T10:46:02.921Z,30.70
2017-12-03T10:48:30.461Z,32.57
2017-12-03T10:50:58.037Z,35.43
2017-12-03T10:53:25.561Z,30.23
2017-12-03T10:55:53.126Z,35.20
2017-12-03T10:58:20.649Z,30.93
2017-12-03T11:00:48.193Z,33.97
2017-12-03T11:03:15.797Z,32.23
2017-12-03T11:05:43.351Z,32.90
2017-12-03T11:08:10.904Z,30.83
2017-12-03T11:10:38.458Z,30.70
2017-12-03T11:13:05.978Z,29.63
2017-12-03T11:15:33.589Z,26.70
2017-12-03T11:18:01.120Z,25.70
2017-12-03T11:20:28.684Z,29.63
2017-12-03T11:22:56.365Z,26.70
2017-12-03T11:25:23.876Z,26.83
2017-12-03T11:27:51.416Z,29.60
2017-12-03T11:30:18.979Z,30.90
2017-12-03T11:32:46.544Z,34.80
2017-12-03T11:35:14.068Z,30.50
2017-12-03T11:37:41.603Z,31.30
2017-12-03T11:40:09.151Z,30.93
2017-12-03T11:42:36.731Z,30.07
2017-12-03T11:45:04.252Z,32.00
2017-12-03T11:47:31.767Z,35.63
2017-12-03T11:49:59.328Z,32.07
2017-12-03T11:52:26.856Z,34.33
2017-12-03T11:54:54.388Z,36.47
2017-12-03T11:57:21.942Z,33.20
2017-12-03T11:59:49.488Z,31.17
2017-12-03T12:02:17.013Z,31.83
2017-12-03T12:04:44.719Z,32.10
2017-12-03T12:07:12.240Z,35.53
2017-12-03T12:09:39.766Z,39.50
2017-12-03T12:12:07.316Z,60.83
2017-12-03T12:14:34.856Z,34.67
2017-12-03T12:17:02.424Z,32.53
2017-12-03T12:19:29.944Z,32.33
2017-12-03T12:21:57.464Z,32.70
2017-12-03T12:24:25.197Z,33.47
2017-12-03T12:26:52.732Z,34.30
2017-12-03T12:29:20.295Z,32.13
2017-12-03T12:31:47.873Z,31.30
2017-12-03T12:34:15.434Z,31.27
2017-12-03T12:36:43.023Z,30.77
2017-12-03T12:39:10.638Z,33.27
2017-12-03T12:41:38.164Z,34.10
2017-12-03T12:44:05.712Z,31.20
2017-12-03T12:46:33.252Z,30.20
2017-12-03T12:49:01.009Z,33.00
2017-12-03T12:51:28.595Z,32.87
2017-12-03T12:53:56.152Z,33.10
2017-12-03T12:56:23.825Z,33.60
2017-12-03T12:58:51.381Z,32.73
2017-12-03T13:01:18.924Z,33.50
2017-12-03T13:03:46.501Z,32.40
2017-12-03T13:06:14.021Z,35.53
2017-12-03T13:08:41.532Z,32.70
2017-12-03T13:11:09.111Z,30.47
2017-12-03T13:13:36.660Z,32.23
2017-12-03T13:16:04.191Z,33.10
2017-12-03T13:18:31.812Z,36.10
2017-12-03T13:20:59.352Z,35.20
2017-12-03T13:23:26.943Z,38.07
2017-12-03T13:25:54.474Z,35.70
2017-12-03T13:28:21.996Z,39.17
2017-12-03T13:30:49.777Z,36.20
2017-12-03T13:33:17.301Z,38.57
2017-12-03T13:35:44.842Z,39.33
2017-12-03T13:38:12.387Z,37.90
2017-12-03T13:40:40.082Z,36.67
2017-12-03T13:43:07.624Z,41.27
2017-12-03T13:45:35.153Z,39.60
2017-12-03T13:48:02.894Z,37.30
2017-12-03T13:50:30.417Z,34.80
2017-12-03T13:52:57.969Z,41.63
2017-12-03T13:55:25.508Z,36.60
2017-12-03T13:57:53.029Z,34.33
2017-12-03T14:00:20.584Z,35.20
2017-12-03T14:02:48.163Z,37.40
2017-12-03T14:05:15.694Z,39.80
2017-12-03T14:07:43.256Z,36.47
2017-12-03T14:10:10.834Z,40.13
2017-12-03T14:12:38.388Z,36.57
2017-12-03T14:15:06.010Z,35.73
2017-12-03T14:17:33.553Z,38.50
2017-12-03T14:20:01.237Z,37.63
2017-12-03T14:22:28.760Z,40.10
2017-12-03T14:24:56.309Z,38.90
2017-12-03T14:27:23.866Z,39.10
2017-12-03T14:29:51.407Z,38.30
2017-12-03T14:32:18.981Z,39.53
2017-12-03T14:34:46.520Z,37.47
2017-12-03T14:37:14.035Z,37.97
2017-12-03T14:39:41.590Z,36.83
2017-12-03T14:42:09.167Z,36.30
2017-12-03T14:44:36.821Z,37.60
2017-12-03T14:47:04.417Z,39.30
2017-12-03T14:49:31.957Z,37.73
2017-12-03T14:51:59.539Z,35.60
2017-12-03T14:54:27.069Z,34.50
2017-12-03T14:56:54.599Z,36.17
2017-12-03T14:59:22.148Z,38.67
2017-12-03T15:01:49.668Z,35.30
2017-12-03T15:04:17.453Z,35.00
2017-12-03T15:06:44.988Z,41.30
2017-12-03T15:09:12.532Z,43.00
2017-12-03T15:11:40.127Z,38.23
2017-12-03T15:14:07.664Z,41.43
2017-12-03T15:16:35.246Z,39.50
2017-12-03T15:19:02.832Z,39.30
2017-12-03T15:21:30.385Z,40.57
2017-12-03T15:23:57.924Z,39.87
2017-12-03T15:26:25.497Z,41.90
2017-12-03T15:28:53.117Z,30.83
2017-12-03T15:31:20.672Z,35.83
2017-12-03T15:33:48.270Z,35.90
2017-12-03T15:36:15.832Z,38.80
2017-12-03T15:38:43.428Z,33.30
2017-12-03T15:41:11.029Z,31.70
2017-12-03T15:43:38.640Z,36.97
2017-12-03T15:46:06.222Z,35.17
2017-12-03T15:48:33.788Z,36.13
2017-12-03T15:51:01.367Z,38.27
2017-12-03T15:53:28.996Z,37.03
2017-12-03T15:55:56.789Z,41.60
2017-12-03T15:58:24.327Z,37.27
2017-12-03T16:00:51.864Z,37.67
2017-12-03T16:03:19.439Z,38.30
2017-12-03T16:05:47.024Z,38.93
2017-12-03T16:08:14.580Z,42.67
2017-12-03T16:10:42.381Z,39.97
2017-12-03T16:13:09.910Z,42.67
2017-12-03T16:15:37.457Z,39.60
2017-12-03T16:18:05.030Z,58.20
2017-12-03T16:20:32.583Z,44.63
2017-12-03T16:23:00.512Z,49.50
2017-12-03T16:25:28.113Z,38.07
2017-12-03T16:27:55.646Z,52.83
2017-12-03T16:30:23.212Z,47.40
2017-12-03T16:32:50.809Z,52.27
2017-12-03T16:35:18.353Z,39.90
2017-12-03T16:37:45.885Z,36.43
2017-12-03T16:40:13.476Z,37.47
2017-12-03T16:42:41.073Z,47.90
2017-12-03T16:45:08.608Z,37.67
2017-12-03T16:47:36.137Z,40.93
2017-12-03T16:50:04.619Z,37.53
2017-12-03T16:52:32.169Z,44.20
2017-12-03T16:54:59.713Z,44.80
2017-12-03T16:57:27.321Z,37.83
2017-12-03T16:59:54.874Z,35.70
2017-12-03T17:02:22.421Z,36.33
2017-12-03T17:04:50.173Z,35.17
2017-12-03T17:07:17.698Z,35.07
2017-12-03T17:09:45.236Z,39.23
2017-12-03T17:12:12.812Z,46.63
2017-12-03T17:14:40.557Z,38.00
2017-12-03T17:17:08.088Z,31.70
2017-12-03T17:19:35.637Z,35.93
2017-12-03T17:22:03.240Z,31.67
2017-12-03T17:24:30.776Z,37.03
2017-12-03T17:26:58.356Z,33.40
2017-12-03T17:29:25.973Z,36.10
2017-12-03T17:31:53.500Z,36.57
2017-12-03T17:34:21.030Z,33.77
2017-12-03T17:36:48.731Z,34.20
2017-12-03T17:39:16.262Z,41.20
2017-12-03T17:41:43.797Z,38.40
2017-12-03T17:44:11.383Z,30.57
2017-12-03T17:46:38.917Z,31.37
2017-12-03T17:49:06.457Z,31.77
2017-12-03T17:51:34.009Z,33.87
2017-12-03T17:54:01.532Z,34.40
2017-12-03T17:56:29.085Z,27.13
2017-12-03T17:58:56.656Z,30.23
2017-12-03T18:01:24.194Z,27.13
2017-12-03T18:03:51.745Z,26.53
2017-12-03T18:06:19.343Z,25.43
2017-12-03T18:08:46.868Z,25.40
2017-12-03T18:11:14.407Z,30.40
2017-12-03T18:13:41.960Z,29.57
2017-12-03T18:16:09.489Z,29.27
2017-12-03T18:18:37.260Z,28.23
2017-12-03T18:21:04.813Z,27.97
2017-12-03T18:23:32.431Z,31.00
2017-12-03T18:25:59.972Z,28.40
2017-12-03T18:28:27.561Z,30.97
2017-12-03T18:30:55.097Z,30.60
2017-12-03T18:33:22.620Z,29.67
2017-12-03T18:35:50.192Z,30.27
2017-12-03T18:38:17.745Z,27.07
2017-12-03T18:40:45.334Z,31.70
2017-12-03T18:43:13.028Z,37.70
2017-12-03T18:45:40.589Z,29.73
2017-12-03T18:48:08.140Z,33.03
2017-12-03T18:50:35.759Z,37.47
2017-12-03T18:53:03.333Z,34.93
2017-12-03T18:55:30.880Z,38.63
2017-12-03T18:57:58.560Z,38.10
2017-12-03T19:00:26.130Z,35.60
2017-12-03T19:02:53.701Z,33.23
2017-12-03T19:05:21.312Z,31.63
2017-12-03T19:07:48.853Z,29.87
2017-12-03T19:10:16.410Z,29.17
2017-12-03T19:12:43.996Z,35.73
2017-12-03T19:15:11.528Z,32.97
2017-12-03T19:17:39.065Z,30.67
2017-12-03T19:20:06.781Z,35.80
2017-12-03T19:22:34.321Z,31.53
2017-12-03T19:25:01.926Z,30.80
2017-12-03T19:27:29.606Z,30.40
2017-12-03T19:29:57.132Z,28.20
2017-12-03T19:32:24.686Z,29.27
2017-12-03T19:34:52.623Z,25.93
2017-12-03T19:37:20.163Z,27.70
2017-12-03T19:39:47.688Z,30.03
2017-12-03T19:42:15.288Z,26.27
2017-12-03T19:44:42.851Z,24.27
2017-12-03T19:47:10.583Z,22.60
2017-12-03T19:49:38.252Z,24.50
2017-12-03T19:52:05.779Z,21.87
2017-12-03T19:54:33.371Z,23.63
2017-12-03T19:57:00.929Z,24.83
2017-12-03T19:59:28.659Z,22.83
2017-12-03T20:01:56.189Z,21.50
2017-12-03T20:04:23.713Z,21.10
2017-12-03T20:06:51.322Z,23.40
2017-12-03T20:09:18.840Z,22.80
2017-12-03T20:11:46.374Z,20.10
2017-12-03T20:14:13.944Z,22.43
2017-12-03T20:16:41.474Z,23.03
2017-12-03T20:19:09.056Z,21.20
2017-12-03T20:21:36.647Z,22.20
2017-12-03T20:24:04.291Z,22.17
2017-12-03T20:26:31.852Z,23.70
2017-12-03T20:28:59.441Z,22.00
2017-12-03T20:31:27.008Z,22.07
2017-12-03T20:33:54.557Z,20.50
2017-12-03T20:36:22.177Z,19.17
2017-12-03T20:38:49.718Z,18.37
2017-12-03T20:41:17.276Z,18.10
2017-12-03T20:43:44.860Z,13.73
2017-12-03T20:46:12.411Z,14.53
2017-12-03T20:48:40.141Z,13.83
2017-12-03T20:51:07.709Z,15.93
2017-12-03T20:53:35.252Z,11.97
2017-12-03T20:56:02.962Z,11.47
2017-12-03T20:58:30.552Z,12.47
2017-12-03T21:00:58.086Z,10.20
2017-12-03T21:03:25.663Z,10.83
2017-12-03T21:05:53.185Z,10.60
2017-12-03T21:08:20.729Z,8.70
2017-12-03T21:10:48.272Z,8.27
2017-12-03T21:13:15.963Z,8.40
2017-12-03T21:15:43.484Z,8.57
2017-12-03T21:18:11.020Z,9.50
2017-12-03T21:20:38.599Z,9.30
2017-12-03T21:23:06.112Z,8.50
2017-12-03T21:25:33.628Z,8.03
2017-12-03T21:28:01.245Z,7.50
2017-12-03T21:30:28.777Z,7.10
2017-12-03T21:32:56.318Z,8.17
2017-12-03T21:35:24.024Z,9.73
2017-12-03T21:37:51.539Z,7.00
2017-12-03T21:40:19.075Z,7.73
2017-12-03T21:42:46.645Z,9.93
2017-12-03T21:45:14.177Z,8.50
2017-12-03T21:47:41.704Z,8.37
2017-12-03T21:50:09.248Z,7.70
2017-12-03T21:52:36.772Z,9.70
2017-12-03T21:55:04.429Z,9.50
2017-12-03T21:57:31.948Z,10.43
2017-12-03T21:59:59.465Z,9.30
2017-12-03T22:02:27.130Z,8.63
2017-12-03T22:04:54.647Z,9.03
2017-12-03T22:07:22.179Z,8.60
2017-12-03T22:09:49.765Z,9.10
2017-12-03T22:12:17.284Z,9.97
2017-12-03T22:14:44.809Z,7.70
2017-12-03T22:17:12.372Z,6.80
2017-12-03T22:19:39.904Z,8.67
2017-12-03T22:22:07.424Z,7.27
2017-12-03T22:24:35.085Z,7.17
2017-12-03T22:27:02.605Z,7.70
2017-12-03T22:29:30.126Z,6.20
2017-12-03T22:31:57.692Z,6.87
2017-12-03T22:34:25.204Z,8.07
2017-12-03T22:36:52.728Z,6.00
2017-12-03T22:39:20.293Z,7.87
2017-12-03T22:41:47.812Z,8.17
2017-12-03T22:44:15.333Z,7.90
2017-12-03T22:46:42.895Z,10.73
2017-12-03T22:49:10.404Z,9.10
2017-12-03T22:51:37.920Z,7.50
2017-12-03T22:54:05.488Z,8.33
2017-12-03T22:56:33.013Z,8.20
2017-12-03T22:59:00.537Z,8.07
2017-12-03T23:01:28.113Z,8.33
2017-12-03T23:03:55.619Z,7.83
2017-12-03T23:06:23.142Z,8.97
2017-12-03T23:08:50.819Z,7.17
2017-12-03T23:11:18.352Z,7.77
2017-12-03T23:13:45.878Z,7.20
2017-12-03T23:16:13.458Z,8.90
2017-12-03T23:18:40.979Z,7.27
2017-12-03T23:21:08.496Z,8.10
2017-12-03T23:23:36.086Z,8.10
2017-12-03T23:26:03.656Z,6.57
2017-12-03T23:28:31.339Z,6.90
2017-12-03T23:30:59.030Z,6.73
2017-12-03T23:33:26.589Z,6.30
2017-12-03T23:35:54.133Z,7.20
2017-12-03T23:38:21.920Z,6.80
2017-12-03T23:40:49.440Z,6.30
2017-12-03T23:43:16.980Z,6.90
2017-12-03T23:45:44.568Z,6.00
2017-12-03T23:48:12.123Z,7.30
2017-12-03T23:50:39.657Z,6.90
2017-12-03T23:53:07.233Z,6.70
2017-12-03T23:55:34.773Z,7.00
2017-12-03T23:58:02.301Z,7.97
